sensor_id;sensor_type;location;lat;lon;timestamp;pressure;altitude;pressure_sealevel;temperature;humidity
16016;BME280;8112;53.592;10.184;2024-01-15T00:04:20;99044.31;;;0.98;100.00
16016;BME280;8112;53.592;10.184;2024-01-15T00:09:23;99023.06;;;0.90;100.00
16016;BME280;8112;53.592;10.184;2024-01-15T00:14:25;99011.88;;;0.90;100.00
16016;BME280;8112;53.592;10.184;2024-01-15T00:19:27;98992.50;;;0.97;100.00
16016;BME280;8112;53.592;10.184;2024-01-15T00:24:33;99000.78;;;1.05;100.00
16016;BME280;8112;53.592;10.184;2024-01-15T00:29:35;99007.41;;;0.93;100.00
16016;BME280;8112;53.592;10.184;2024-01-15T00:34:37;98984.09;;;0.92;100.00
16016;BME280;8112;53.592;10.184;2024-01-15T00:39:40;98998.81;;;0.91;100.00
16016;BME280;8112;53.592;10.184;2024-01-15T00:44:42;98960.56;;;0.96;100.00
16016;BME280;8112;53.592;10.184;2024-01-15T00:49:44;98940.38;;;0.84;100.00
16016;BME280;8112;53.592;10.184;2024-01-15T00:54:47;98961.28;;;0.81;100.00
16016;BME280;8112;53.592;10.184;2024-01-15T00:59:49;98929.41;;;0.79;100.00
16016;BME280;8112;53.592;10.184;2024-01-15T01:04:50;98929.03;;;0.87;100.00
16016;BME280;8112;53.592;10.184;2024-01-15T01:09:53;98922.44;;;0.79;100.00
16016;BME280;8112;53.592;10.184;2024-01-15T01:14:55;98900.28;;;0.74;100.00
16016;BME280;8112;53.592;10.184;2024-01-15T01:19:57;98889.91;;;0.74;100.00
16016;BME280;8112;53.592;10.184;2024-01-15T01:25:00;98880.28;;;0.76;100.00
16016;BME280;8112;53.592;10.184;2024-01-15T01:30:02;98878.00;;;0.87;100.00
16016;BME280;8112;53.592;10.184;2024-01-15T01:35:04;98878.84;;;0.88;100.00
16016;BME280;8112;53.592;10.184;2024-01-15T01:40:08;98889.63;;;0.97;100.00
16016;BME280;8112;53.592;10.184;2024-01-15T01:45:11;98891.34;;;0.79;100.00
16016;BME280;8112;53.592;10.184;2024-01-15T01:50:12;98887.69;;;0.83;100.00
16016;BME280;8112;53.592;10.184;2024-01-15T01:55:17;98890.31;;;1.01;100.00
16016;BME280;8112;53.592;10.184;2024-01-15T02:00:19;98890.69;;;1.11;100.00
16016;BME280;8112;53.592;10.184;2024-01-15T02:05:22;98881.13;;;1.11;100.00
16016;BME280;8112;53.592;10.184;2024-01-15T02:10:25;98882.00;;;1.12;100.00
16016;BME280;8112;53.592;10.184;2024-01-15T02:15:27;98880.91;;;1.16;100.00
16016;BME280;8112;53.592;10.184;2024-01-15T02:20:29;98878.16;;;1.02;100.00
16016;BME280;8112;53.592;10.184;2024-01-15T02:25:32;98875.72;;;0.98;100.00
16016;BME280;8112;53.592;10.184;2024-01-15T02:30:37;98888.47;;;1.03;100.00
16016;BME280;8112;53.592;10.184;2024-01-15T02:35:39;98886.00;;;1.00;100.00
16016;BME280;8112;53.592;10.184;2024-01-15T02:40:43;98861.63;;;0.87;100.00
16016;BME280;8112;53.592;10.184;2024-01-15T02:45:45;98862.53;;;0.85;100.00
16016;BME280;8112;53.592;10.184;2024-01-15T02:50:47;98862.53;;;0.85;100.00
16016;BME280;8112;53.592;10.184;2024-01-15T02:55:50;98854.22;;;0.96;100.00
16016;BME280;8112;53.592;10.184;2024-01-15T03:00:52;98856.50;;;1.03;100.00
16016;BME280;8112;53.592;10.184;2024-01-15T03:05:53;98867.25;;;1.12;100.00
16016;BME280;8112;53.592;10.184;2024-01-15T03:10:56;98866.06;;;1.02;100.00
16016;BME280;8112;53.592;10.184;2024-01-15T03:15:59;98873.56;;;1.07;100.00
16016;BME280;8112;53.592;10.184;2024-01-15T03:21:01;98892.50;;;1.09;100.00
16016;BME280;8112;53.592;10.184;2024-01-15T03:26:04;98871.75;;;1.09;100.00
16016;BME280;8112;53.592;10.184;2024-01-15T03:31:05;98889.97;;;0.90;100.00
16016;BME280;8112;53.592;10.184;2024-01-15T03:36:09;98891.59;;;0.92;100.00
16016;BME280;8112;53.592;10.184;2024-01-15T03:41:12;98891.72;;;0.89;100.00
16016;BME280;8112;53.592;10.184;2024-01-15T03:46:14;98897.91;;;0.87;100.00
16016;BME280;8112;53.592;10.184;2024-01-15T03:51:17;98897.31;;;0.99;100.00
16016;BME280;8112;53.592;10.184;2024-01-15T03:56:20;98899.28;;;0.94;100.00
16016;BME280;8112;53.592;10.184;2024-01-15T04:01:21;98909.44;;;0.98;100.00
16016;BME280;8112;53.592;10.184;2024-01-15T04:06:23;98913.94;;;0.95;100.00
16016;BME280;8112;53.592;10.184;2024-01-15T04:11:26;98901.34;;;1.05;100.00
16016;BME280;8112;53.592;10.184;2024-01-15T04:16:28;98907.56;;;1.02;100.00
16016;BME280;8112;53.592;10.184;2024-01-15T04:21:29;98901.06;;;1.11;100.00
16016;BME280;8112;53.592;10.184;2024-01-15T04:26:32;98903.56;;;1.12;100.00
16016;BME280;8112;53.592;10.184;2024-01-15T04:31:34;98903.03;;;1.06;100.00
16016;BME280;8112;53.592;10.184;2024-01-15T04:36:38;98906.09;;;1.14;100.00
16016;BME280;8112;53.592;10.184;2024-01-15T04:41:41;98909.13;;;1.22;100.00
16016;BME280;8112;53.592;10.184;2024-01-15T04:46:43;98906.16;;;1.12;100.00
16016;BME280;8112;53.592;10.184;2024-01-15T04:51:45;98906.53;;;1.05;100.00
16016;BME280;8112;53.592;10.184;2024-01-15T04:56:48;98900.44;;;1.06;100.00
16016;BME280;8112;53.592;10.184;2024-01-15T05:01:49;98899.41;;;1.10;100.00
16016;BME280;8112;53.592;10.184;2024-01-15T05:06:51;98890.22;;;1.20;100.00
16016;BME280;8112;53.592;10.184;2024-01-15T05:11:54;98885.56;;;1.09;100.00
16016;BME280;8112;53.592;10.184;2024-01-15T05:16:56;98896.69;;;1.11;100.00
16016;BME280;8112;53.592;10.184;2024-01-15T05:21:58;98897.84;;;1.06;100.00
16016;BME280;8112;53.592;10.184;2024-01-15T05:27:01;98900.69;;;1.01;100.00
16016;BME280;8112;53.592;10.184;2024-01-15T05:32:03;98890.44;;;0.98;100.00
16016;BME280;8112;53.592;10.184;2024-01-15T05:37:05;98895.72;;;0.96;100.00
16016;BME280;8112;53.592;10.184;2024-01-15T05:42:08;98898.16;;;0.99;100.00
16016;BME280;8112;53.592;10.184;2024-01-15T05:47:09;98893.72;;;1.02;100.00
16016;BME280;8112;53.592;10.184;2024-01-15T05:52:11;98898.00;;;1.03;100.00
16016;BME280;8112;53.592;10.184;2024-01-15T05:57:14;98898.22;;;0.98;100.00
16016;BME280;8112;53.592;10.184;2024-01-15T06:02:16;98906.84;;;0.98;100.00
16016;BME280;8112;53.592;10.184;2024-01-15T06:07:19;98907.56;;;1.02;100.00
16016;BME280;8112;53.592;10.184;2024-01-15T06:12:22;98916.25;;;1.01;100.00
16016;BME280;8112;53.592;10.184;2024-01-15T06:17:24;98912.66;;;1.04;100.00
16016;BME280;8112;53.592;10.184;2024-01-15T06:22:26;98908.69;;;0.96;100.00
16016;BME280;8112;53.592;10.184;2024-01-15T06:27:29;98912.88;;;0.99;100.00
16016;BME280;8112;53.592;10.184;2024-01-15T06:32:30;98906.53;;;1.05;100.00
16016;BME280;8112;53.592;10.184;2024-01-15T06:37:32;98901.19;;;1.08;100.00
16016;BME280;8112;53.592;10.184;2024-01-15T06:42:35;98906.88;;;1.16;100.00
16016;BME280;8112;53.592;10.184;2024-01-15T06:47:37;98902.06;;;1.08;100.00
16016;BME280;8112;53.592;10.184;2024-01-15T06:52:39;98907.63;;;1.18;100.00
16016;BME280;8112;53.592;10.184;2024-01-15T06:57:42;98913.13;;;1.12;100.00
16016;BME280;8112;53.592;10.184;2024-01-15T07:02:43;98915.84;;;1.26;100.00
16016;BME280;8112;53.592;10.184;2024-01-15T07:07:45;98915.84;;;1.26;100.00
16016;BME280;8112;53.592;10.184;2024-01-15T07:12:49;98921.91;;;1.27;100.00
16016;BME280;8112;53.592;10.184;2024-01-15T07:17:50;98919.69;;;1.19;100.00
16016;BME280;8112;53.592;10.184;2024-01-15T07:22:52;98926.09;;;1.30;100.00
16016;BME280;8112;53.592;10.184;2024-01-15T07:27:55;98936.59;;;1.26;100.00
16016;BME280;8112;53.592;10.184;2024-01-15T07:32:57;98936.16;;;1.36;100.00
16016;BME280;8112;53.592;10.184;2024-01-15T07:37:58;98937.25;;;1.49;100.00
16016;BME280;8112;53.592;10.184;2024-01-15T07:43:02;98944.09;;;1.68;100.00
16016;BME280;8112;53.592;10.184;2024-01-15T07:48:04;98940.75;;;1.66;100.00
16016;BME280;8112;53.592;10.184;2024-01-15T07:53:06;98926.09;;;1.65;100.00
16016;BME280;8112;53.592;10.184;2024-01-15T07:58:09;98941.41;;;1.69;100.00
16016;BME280;8112;53.592;10.184;2024-01-15T08:03:11;98924.91;;;1.70;100.00
16016;BME280;8112;53.592;10.184;2024-01-15T08:08:13;98920.09;;;1.63;100.00
16016;BME280;8112;53.592;10.184;2024-01-15T08:13:16;98905.56;;;1.76;100.00
16016;BME280;8112;53.592;10.184;2024-01-15T08:18:18;98904.81;;;1.74;100.00
16016;BME280;8112;53.592;10.184;2024-01-15T08:23:22;98914.41;;;1.90;100.00
16016;BME280;8112;53.592;10.184;2024-01-15T08:28:24;98909.22;;;1.90;100.00
16016;BME280;8112;53.592;10.184;2024-01-15T08:33:26;98901.75;;;1.83;100.00
16016;BME280;8112;53.592;10.184;2024-01-15T08:38:28;98913.81;;;1.84;100.00
16016;BME280;8112;53.592;10.184;2024-01-15T08:43:31;98915.75;;;1.97;100.00
16016;BME280;8112;53.592;10.184;2024-01-15T08:48:32;98929.44;;;2.01;100.00
16016;BME280;8112;53.592;10.184;2024-01-15T08:53:34;98926.44;;;2.08;100.00
16016;BME280;8112;53.592;10.184;2024-01-15T08:58:37;98915.28;;;2.06;100.00
16016;BME280;8112;53.592;10.184;2024-01-15T09:03:39;98925.78;;;1.87;100.00
16016;BME280;8112;53.592;10.184;2024-01-15T09:08:42;98935.00;;;1.77;100.00
16016;BME280;8112;53.592;10.184;2024-01-15T09:13:45;98952.13;;;1.46;100.00
16016;BME280;8112;53.592;10.184;2024-01-15T09:18:46;98966.06;;;1.25;100.00
16016;BME280;8112;53.592;10.184;2024-01-15T09:23:48;98969.00;;;1.00;100.00
16016;BME280;8112;53.592;10.184;2024-01-15T09:28:51;98977.78;;;0.97;100.00
16016;BME280;8112;53.592;10.184;2024-01-15T09:33:53;98971.59;;;1.00;100.00
16016;BME280;8112;53.592;10.184;2024-01-15T09:38:57;98980.63;;;1.10;100.00
16016;BME280;8112;53.592;10.184;2024-01-15T09:44:00;98986.44;;;1.16;100.00
16016;BME280;8112;53.592;10.184;2024-01-15T09:49:02;98992.78;;;1.10;100.00
16016;BME280;8112;53.592;10.184;2024-01-15T09:54:05;99015.84;;;1.16;100.00
16016;BME280;8112;53.592;10.184;2024-01-15T09:59:08;99011.00;;;1.08;100.00
16016;BME280;8112;53.592;10.184;2024-01-15T10:04:10;99031.97;;;1.04;100.00
16016;BME280;8112;53.592;10.184;2024-01-15T10:09:13;99036.38;;;1.02;100.00
16016;BME280;8112;53.592;10.184;2024-01-15T10:14:16;99052.56;;;1.07;100.00
16016;BME280;8112;53.592;10.184;2024-01-15T10:19:18;99053.63;;;1.03;100.00
16016;BME280;8112;53.592;10.184;2024-01-15T10:24:19;99063.19;;;1.02;100.00
16016;BME280;8112;53.592;10.184;2024-01-15T10:29:24;99070.47;;;1.13;100.00
16016;BME280;8112;53.592;10.184;2024-01-15T10:34:26;99071.69;;;1.23;100.00
16016;BME280;8112;53.592;10.184;2024-01-15T10:39:28;99081.66;;;1.33;100.00
16016;BME280;8112;53.592;10.184;2024-01-15T10:44:32;99100.59;;;1.35;100.00
16016;BME280;8112;53.592;10.184;2024-01-15T10:49:34;99099.69;;;1.36;100.00
16016;BME280;8112;53.592;10.184;2024-01-15T10:54:37;99107.31;;;1.39;100.00
16016;BME280;8112;53.592;10.184;2024-01-15T10:59:40;99101.28;;;1.38;100.00
16016;BME280;8112;53.592;10.184;2024-01-15T11:04:42;99093.56;;;1.37;100.00
16016;BME280;8112;53.592;10.184;2024-01-15T11:09:45;99108.22;;;1.38;100.00
16016;BME280;8112;53.592;10.184;2024-01-15T11:14:49;99101.16;;;1.41;100.00
16016;BME280;8112;53.592;10.184;2024-01-15T11:19:51;99105.22;;;1.47;100.00
16016;BME280;8112;53.592;10.184;2024-01-15T11:24:52;99104.13;;;1.51;100.00
16016;BME280;8112;53.592;10.184;2024-01-15T11:30:04;99098.19;;;1.49;100.00
16016;BME280;8112;53.592;10.184;2024-01-15T11:35:09;99115.50;;;1.49;100.00
16016;BME280;8112;53.592;10.184;2024-01-15T11:40:11;99112.53;;;1.56;100.00
16016;BME280;8112;53.592;10.184;2024-01-15T11:45:18;99119.91;;;1.66;100.00
16016;BME280;8112;53.592;10.184;2024-01-15T11:50:21;99115.88;;;1.78;100.00
16016;BME280;8112;53.592;10.184;2024-01-15T11:55:27;99118.38;;;1.97;100.00
16016;BME280;8112;53.592;10.184;2024-01-15T12:00:31;99121.91;;;2.13;100.00
16016;BME280;8112;53.592;10.184;2024-01-15T12:05:32;99118.16;;;2.19;100.00
16016;BME280;8112;53.592;10.184;2024-01-15T12:10:34;99122.66;;;2.33;100.00
16016;BME280;8112;53.592;10.184;2024-01-15T12:15:37;99116.31;;;2.21;100.00
16016;BME280;8112;53.592;10.184;2024-01-15T12:20:42;99120.06;;;2.16;100.00
16016;BME280;8112;53.592;10.184;2024-01-15T12:25:44;99134.13;;;2.11;100.00
16016;BME280;8112;53.592;10.184;2024-01-15T12:30:47;99129.88;;;2.10;100.00
16016;BME280;8112;53.592;10.184;2024-01-15T12:35:52;99136.59;;;2.14;100.00
16016;BME280;8112;53.592;10.184;2024-01-15T12:40:54;99137.88;;;2.06;100.00
16016;BME280;8112;53.592;10.184;2024-01-15T12:45:58;99140.41;;;2.07;100.00
16016;BME280;8112;53.592;10.184;2024-01-15T12:50:59;99148.03;;;1.93;100.00
16016;BME280;8112;53.592;10.184;2024-01-15T12:56:01;99146.59;;;2.05;100.00
16016;BME280;8112;53.592;10.184;2024-01-15T13:01:04;99150.50;;;2.13;100.00
16016;BME280;8112;53.592;10.184;2024-01-15T13:06:06;99160.88;;;2.13;100.00
16016;BME280;8112;53.592;10.184;2024-01-15T13:11:08;99153.03;;;2.15;100.00
16016;BME280;8112;53.592;10.184;2024-01-15T13:16:12;99155.91;;;2.26;100.00
16016;BME280;8112;53.592;10.184;2024-01-15T13:21:13;99145.75;;;2.04;100.00
16016;BME280;8112;53.592;10.184;2024-01-15T13:26:15;99156.00;;;2.07;100.00
16016;BME280;8112;53.592;10.184;2024-01-15T13:31:19;99155.41;;;2.02;100.00
16016;BME280;8112;53.592;10.184;2024-01-15T13:36:22;99160.44;;;2.05;100.00
16016;BME280;8112;53.592;10.184;2024-01-15T13:41:23;99175.38;;;2.00;100.00
16016;BME280;8112;53.592;10.184;2024-01-15T13:46:29;99171.88;;;2.01;100.00
16016;BME280;8112;53.592;10.184;2024-01-15T13:51:31;99180.97;;;1.92;100.00
16016;BME280;8112;53.592;10.184;2024-01-15T13:56:32;99183.50;;;1.94;100.00
16016;BME280;8112;53.592;10.184;2024-01-15T14:01:37;99193.22;;;1.71;100.00
16016;BME280;8112;53.592;10.184;2024-01-15T14:06:38;99188.59;;;1.59;100.00
16016;BME280;8112;53.592;10.184;2024-01-15T14:11:40;99194.09;;;1.52;100.00
16016;BME280;8112;53.592;10.184;2024-01-15T14:16:43;99203.97;;;1.44;100.00
16016;BME280;8112;53.592;10.184;2024-01-15T14:21:45;99213.53;;;1.44;100.00
16016;BME280;8112;53.592;10.184;2024-01-15T14:26:47;99201.66;;;1.38;100.00
16016;BME280;8112;53.592;10.184;2024-01-15T14:31:50;99211.56;;;1.30;100.00
16016;BME280;8112;53.592;10.184;2024-01-15T14:36:51;99222.34;;;1.20;100.00
16016;BME280;8112;53.592;10.184;2024-01-15T14:41:55;99230.56;;;1.11;100.00
16016;BME280;8112;53.592;10.184;2024-01-15T14:46:58;99228.75;;;0.92;100.00
16016;BME280;8112;53.592;10.184;2024-01-15T14:52:00;99232.16;;;0.74;100.00
16016;BME280;8112;53.592;10.184;2024-01-15T14:57:02;99238.47;;;0.66;100.00
16016;BME280;8112;53.592;10.184;2024-01-15T15:02:05;99247.22;;;0.64;100.00
16016;BME280;8112;53.592;10.184;2024-01-15T15:07:07;99255.56;;;0.50;100.00
16016;BME280;8112;53.592;10.184;2024-01-15T15:12:09;99267.03;;;0.44;100.00
16016;BME280;8112;53.592;10.184;2024-01-15T15:17:12;99268.25;;;0.35;100.00
16016;BME280;8112;53.592;10.184;2024-01-15T15:22:13;99280.84;;;0.22;100.00
16016;BME280;8112;53.592;10.184;2024-01-15T15:27:15;99300.31;;;0.10;100.00
16016;BME280;8112;53.592;10.184;2024-01-15T15:32:18;99304.84;;;0.05;100.00
16016;BME280;8112;53.592;10.184;2024-01-15T15:37:20;99310.31;;;-0.03;100.00
16016;BME280;8112;53.592;10.184;2024-01-15T15:42:21;99314.03;;;-0.10;100.00
16016;BME280;8112;53.592;10.184;2024-01-15T15:47:25;99323.84;;;-0.18;100.00
16016;BME280;8112;53.592;10.184;2024-01-15T15:52:27;99337.81;;;-0.22;100.00
16016;BME280;8112;53.592;10.184;2024-01-15T15:57:30;99343.94;;;-0.25;100.00
16016;BME280;8112;53.592;10.184;2024-01-15T16:02:33;99358.69;;;-0.27;100.00
16016;BME280;8112;53.592;10.184;2024-01-15T16:07:35;99366.56;;;-0.30;100.00
16016;BME280;8112;53.592;10.184;2024-01-15T16:12:37;99363.22;;;-0.34;100.00
16016;BME280;8112;53.592;10.184;2024-01-15T16:17:41;99376.91;;;-0.30;100.00
16016;BME280;8112;53.592;10.184;2024-01-15T16:22:43;99378.09;;;-0.39;100.00
16016;BME280;8112;53.592;10.184;2024-01-15T16:27:44;99385.91;;;-0.40;100.00
16016;BME280;8112;53.592;10.184;2024-01-15T16:32:47;99390.44;;;-0.47;100.00
16016;BME280;8112;53.592;10.184;2024-01-15T16:37:49;99393.41;;;-0.58;100.00
16016;BME280;8112;53.592;10.184;2024-01-15T16:42:51;99398.69;;;-0.61;100.00
16016;BME280;8112;53.592;10.184;2024-01-15T16:47:54;99402.16;;;-0.62;100.00
16016;BME280;8112;53.592;10.184;2024-01-15T16:52:55;99420.06;;;-0.56;100.00
16016;BME280;8112;53.592;10.184;2024-01-15T16:57:57;99419.34;;;-0.60;100.00
16016;BME280;8112;53.592;10.184;2024-01-15T17:03:00;99436.44;;;-0.55;100.00
16016;BME280;8112;53.592;10.184;2024-01-15T17:08:02;99431.44;;;-0.60;100.00
16016;BME280;8112;53.592;10.184;2024-01-15T17:13:05;99434.63;;;-0.52;100.00
16016;BME280;8112;53.592;10.184;2024-01-15T17:18:08;99444.63;;;-0.43;100.00
16016;BME280;8112;53.592;10.184;2024-01-15T17:23:14;99448.59;;;-0.32;100.00
16016;BME280;8112;53.592;10.184;2024-01-15T17:28:16;99456.00;;;-0.21;100.00
16016;BME280;8112;53.592;10.184;2024-01-15T17:33:19;99469.69;;;-0.18;100.00
16016;BME280;8112;53.592;10.184;2024-01-15T17:38:20;99476.34;;;-0.10;100.00
16016;BME280;8112;53.592;10.184;2024-01-15T17:43:22;99475.59;;;-0.14;100.00
16016;BME280;8112;53.592;10.184;2024-01-15T17:48:25;99480.13;;;-0.21;100.00
16016;BME280;8112;53.592;10.184;2024-01-15T17:53:27;99495.34;;;-0.11;100.00
16016;BME280;8112;53.592;10.184;2024-01-15T17:58:29;99501.19;;;-0.05;100.00
16016;BME280;8112;53.592;10.184;2024-01-15T18:03:32;99505.19;;;0.04;100.00
16016;BME280;8112;53.592;10.184;2024-01-15T18:08:34;99508.84;;;0.22;100.00
16016;BME280;8112;53.592;10.184;2024-01-15T18:13:35;99524.72;;;0.38;100.00
16016;BME280;8112;53.592;10.184;2024-01-15T18:18:39;99539.50;;;0.35;100.00
16016;BME280;8112;53.592;10.184;2024-01-15T18:23:40;99547.59;;;0.25;100.00
16016;BME280;8112;53.592;10.184;2024-01-15T18:28:42;99549.59;;;0.42;100.00
16016;BME280;8112;53.592;10.184;2024-01-15T18:33:45;99543.41;;;0.47;100.00
16016;BME280;8112;53.592;10.184;2024-01-15T18:38:47;99550.91;;;0.54;100.00
16016;BME280;8112;53.592;10.184;2024-01-15T18:43:49;99543.16;;;0.53;100.00
16016;BME280;8112;53.592;10.184;2024-01-15T18:48:53;99545.38;;;0.40;100.00
16016;BME280;8112;53.592;10.184;2024-01-15T18:53:55;99535.75;;;0.44;100.00
16016;BME280;8112;53.592;10.184;2024-01-15T18:58:57;99545.97;;;0.48;100.00
16016;BME280;8112;53.592;10.184;2024-01-15T19:04:00;99544.16;;;0.50;100.00
16016;BME280;8112;53.592;10.184;2024-01-15T19:09:02;99534.56;;;0.52;100.00
16016;BME280;8112;53.592;10.184;2024-01-15T19:14:04;99539.75;;;0.28;100.00
16016;BME280;8112;53.592;10.184;2024-01-15T19:19:07;99541.75;;;0.44;100.00
16016;BME280;8112;53.592;10.184;2024-01-15T19:24:09;99531.41;;;0.44;100.00
16016;BME280;8112;53.592;10.184;2024-01-15T19:29:10;99516.41;;;0.52;100.00
16016;BME280;8112;53.592;10.184;2024-01-15T19:34:13;99513.75;;;0.54;100.00
16016;BME280;8112;53.592;10.184;2024-01-15T19:39:15;99522.03;;;0.64;100.00
16016;BME280;8112;53.592;10.184;2024-01-15T19:44:17;99518.16;;;0.52;100.00
16016;BME280;8112;53.592;10.184;2024-01-15T19:49:20;99525.53;;;0.39;100.00
16016;BME280;8112;53.592;10.184;2024-01-15T19:54:21;99529.06;;;0.36;100.00
16016;BME280;8112;53.592;10.184;2024-01-15T19:59:23;99531.91;;;0.30;100.00
16016;BME280;8112;53.592;10.184;2024-01-15T20:04:26;99533.16;;;0.44;100.00
16016;BME280;8112;53.592;10.184;2024-01-15T20:09:28;99539.88;;;0.49;100.00
16016;BME280;8112;53.592;10.184;2024-01-15T20:14:30;99541.72;;;0.46;100.00
16016;BME280;8112;53.592;10.184;2024-01-15T20:19:33;99541.59;;;0.49;100.00
16016;BME280;8112;53.592;10.184;2024-01-15T20:24:35;99552.09;;;0.46;100.00
16016;BME280;8112;53.592;10.184;2024-01-15T20:29:37;99601.22;;;0.23;100.00
16016;BME280;8112;53.592;10.184;2024-01-15T20:34:40;99586.16;;;0.09;100.00
16016;BME280;8112;53.592;10.184;2024-01-15T20:39:41;99606.03;;;0.09;100.00
16016;BME280;8112;53.592;10.184;2024-01-15T20:44:44;99607.94;;;0.04;100.00
16016;BME280;8112;53.592;10.184;2024-01-15T20:49:47;99611.78;;;-0.08;100.00
16016;BME280;8112;53.592;10.184;2024-01-15T20:54:49;99625.13;;;-0.21;100.00
16016;BME280;8112;53.592;10.184;2024-01-15T20:59:51;99634.78;;;-0.26;100.00
16016;BME280;8112;53.592;10.184;2024-01-15T21:04:54;99637.94;;;-0.43;100.00
16016;BME280;8112;53.592;10.184;2024-01-15T21:09:55;99652.81;;;-0.51;100.00
16016;BME280;8112;53.592;10.184;2024-01-15T21:14:57;99655.19;;;-0.44;100.00
16016;BME280;8112;53.592;10.184;2024-01-15T21:20:00;99659.59;;;-0.47;100.00
16016;BME280;8112;53.592;10.184;2024-01-15T21:25:08;99655.19;;;-0.44;100.00
16016;BME280;8112;53.592;10.184;2024-01-15T21:30:10;99661.88;;;-0.36;100.00
16016;BME280;8112;53.592;10.184;2024-01-15T21:35:14;99657.84;;;-0.45;100.00
16016;BME280;8112;53.592;10.184;2024-01-15T21:40:16;99667.44;;;-0.49;100.00
16016;BME280;8112;53.592;10.184;2024-01-15T21:45:17;99670.78;;;-0.45;100.00
16016;BME280;8112;53.592;10.184;2024-01-15T21:50:21;99669.94;;;-0.47;100.00
16016;BME280;8112;53.592;10.184;2024-01-15T21:55:23;99678.13;;;-0.61;100.00
16016;BME280;8112;53.592;10.184;2024-01-15T22:00:24;99686.53;;;-0.83;100.00
16016;BME280;8112;53.592;10.184;2024-01-15T22:05:27;99702.38;;;-0.95;100.00
16016;BME280;8112;53.592;10.184;2024-01-15T22:10:29;99712.41;;;-0.83;100.00
16016;BME280;8112;53.592;10.184;2024-01-15T22:15:31;99718.38;;;-0.81;100.00
16016;BME280;8112;53.592;10.184;2024-01-15T22:20:34;99737.50;;;-0.87;100.00
16016;BME280;8112;53.592;10.184;2024-01-15T22:25:35;99749.00;;;-0.97;100.00
16016;BME280;8112;53.592;10.184;2024-01-15T22:30:37;99757.06;;;-1.08;100.00
16016;BME280;8112;53.592;10.184;2024-01-15T22:35:41;99770.28;;;-1.20;100.00
16016;BME280;8112;53.592;10.184;2024-01-15T22:40:43;99774.69;;;-1.24;100.00
16016;BME280;8112;53.592;10.184;2024-01-15T22:45:44;99786.59;;;-1.18;100.00
16016;BME280;8112;53.592;10.184;2024-01-15T22:50:47;99800.13;;;-1.07;100.00
16016;BME280;8112;53.592;10.184;2024-01-15T22:55:49;99814.81;;;-1.09;100.00
16016;BME280;8112;53.592;10.184;2024-01-15T23:00:53;99822.34;;;-0.99;100.00
16016;BME280;8112;53.592;10.184;2024-01-15T23:05:56;99843.47;;;-0.83;100.00
16016;BME280;8112;53.592;10.184;2024-01-15T23:10:57;99834.06;;;-0.86;100.00
16016;BME280;8112;53.592;10.184;2024-01-15T23:16:00;99835.97;;;-0.94;100.00
16016;BME280;8112;53.592;10.184;2024-01-15T23:21:03;99841.25;;;-0.97;100.00
16016;BME280;8112;53.592;10.184;2024-01-15T23:26:05;99843.69;;;-0.91;100.00
16016;BME280;8112;53.592;10.184;2024-01-15T23:31:08;99844.88;;;-1.05;100.00
16016;BME280;8112;53.592;10.184;2024-01-15T23:36:11;99859.31;;;-0.96;100.00
16016;BME280;8112;53.592;10.184;2024-01-15T23:41:17;99866.72;;;-0.82;100.00
16016;BME280;8112;53.592;10.184;2024-01-15T23:46:19;99880.09;;;-0.99;100.00
16016;BME280;8112;53.592;10.184;2024-01-15T23:51:23;99884.41;;;-0.99;100.00
16016;BME280;8112;53.592;10.184;2024-01-15T23:56:25;99886.81;;;-0.93;100.00
